Saint Mary, Montana
Current Conditions -  °F | °C
As of 6:56 AM on Friday 31 Oct 2014 (Local Time) from KCTB Reporting Station
Haze Haze  
Wind Chill:   Ceiling: Unl
Heat Index:   Visibility: 6mi
Dew Point: -1°   Wind: 3mph
Humidity: 92%   Direction: 90°E
Pressure: 29.83"   Gusts: NA
Location:  48.5484°N, 112.952°W
Report Text: KCTB 311256Z AUTO 09003KT 6SM BR CLR 00/M01 A2983 RMK AO2 SLP115 T00001011
Loading
Personal Weather Stations






























Interactive Weather Map
Tropical Storm Tracking
New forecast layout! Learn more

10-Day Weather Forecast

Advertisements
Track Severe Weather on mobile